createdAt,value
2024-04-18T00:01:58.052Z,2.14
2024-04-18T00:04:25.145Z,2.14
2024-04-18T00:06:59.650Z,2.13
2024-04-18T00:09:26.847Z,2.11
2024-04-18T00:11:53.919Z,2.10
2024-04-18T00:14:21.381Z,2.09
2024-04-18T00:16:48.385Z,2.06
2024-04-18T00:19:15.585Z,2.05
2024-04-18T00:21:56.143Z,2.03
2024-04-18T00:24:26.240Z,2.01
2024-04-18T00:26:53.271Z,1.98
2024-04-18T00:29:20.595Z,1.96
2024-04-18T00:31:48.053Z,1.93
2024-04-18T00:34:33.866Z,1.89
2024-04-18T00:37:00.729Z,1.84
2024-04-18T00:39:27.854Z,1.80
2024-04-18T00:42:01.220Z,1.77
2024-04-18T00:44:30.993Z,1.74
2024-04-18T00:47:14.149Z,1.71
2024-04-18T00:50:01.366Z,1.68
2024-04-18T00:52:38.967Z,1.63
2024-04-18T00:55:07.125Z,1.65
2024-04-18T00:57:34.431Z,1.64
2024-04-18T01:00:01.523Z,1.63
2024-04-18T01:02:30.282Z,1.62
2024-04-18T01:05:16.608Z,1.60
2024-04-18T01:07:43.402Z,1.58
2024-04-18T01:10:22.599Z,1.54
2024-04-18T01:13:00.031Z,1.54
2024-04-18T01:15:45.481Z,1.54
2024-04-18T01:18:12.738Z,1.53
2024-04-18T01:20:39.821Z,1.52
2024-04-18T01:23:07.468Z,1.53
2024-04-18T01:25:43.433Z,1.53
2024-04-18T01:28:10.635Z,1.50
2024-04-18T01:30:57.513Z,1.47
2024-04-18T01:33:26.246Z,1.45
2024-04-18T01:35:53.437Z,1.42
2024-04-18T01:38:20.582Z,1.41
2024-04-18T01:40:47.845Z,1.40
2024-04-18T01:43:33.788Z,1.39
2024-04-18T01:46:19.424Z,1.38
2024-04-18T01:49:01.628Z,1.36
2024-04-18T01:51:47.092Z,1.33
2024-04-18T01:54:32.377Z,1.31
2024-04-18T01:56:59.369Z,1.31
2024-04-18T01:59:46.999Z,1.31
2024-04-18T02:02:13.875Z,1.30
2024-04-18T02:05:01.245Z,1.29
2024-04-18T02:07:43.673Z,1.28
2024-04-18T02:10:11.142Z,1.27
2024-04-18T02:12:57.596Z,1.26
2024-04-18T02:15:43.100Z,1.23
2024-04-18T02:18:17.645Z,1.21
2024-04-18T02:20:44.963Z,1.20
2024-04-18T02:23:23.691Z,1.18
2024-04-18T02:25:50.650Z,1.18
2024-04-18T02:28:17.770Z,1.17
2024-04-18T02:30:44.833Z,1.13
2024-04-18T02:33:12.172Z,1.07
2024-04-18T02:35:45.582Z,1.06
2024-04-18T02:38:30.903Z,1.03
2024-04-18T02:41:06.256Z,0.98
2024-04-18T02:43:50.241Z,0.94
2024-04-18T02:46:17.124Z,0.91
2024-04-18T02:49:04.282Z,0.89
2024-04-18T02:51:31.363Z,0.90
2024-04-18T02:54:13.657Z,0.90
2024-04-18T02:56:41.058Z,0.88
2024-04-18T02:59:11.391Z,0.88
2024-04-18T03:01:50.525Z,0.85
2024-04-18T03:04:17.577Z,0.85
2024-04-18T03:06:46.709Z,0.85
2024-04-18T03:09:14.153Z,0.84
2024-04-18T03:11:53.312Z,0.83
2024-04-18T03:14:39.032Z,0.81
2024-04-18T03:17:06.102Z,0.81
2024-04-18T03:19:53.712Z,0.80
2024-04-18T03:22:26.316Z,0.78
2024-04-18T03:24:58.692Z,0.78
2024-04-18T03:27:28.515Z,0.78
2024-04-18T03:29:55.190Z,0.78
2024-04-18T03:32:34.015Z,0.78
2024-04-18T03:35:01.091Z,0.79
2024-04-18T03:37:28.043Z,0.81
2024-04-18T03:39:55.310Z,0.82
2024-04-18T03:42:22.413Z,0.82
2024-04-18T03:44:52.345Z,0.83
2024-04-18T03:47:19.643Z,0.85
2024-04-18T03:50:06.515Z,0.88
2024-04-18T03:52:39.774Z,0.88
2024-04-18T03:55:26.096Z,0.91
2024-04-18T03:57:53.218Z,0.91
2024-04-18T04:00:42.082Z,0.95
2024-04-18T04:03:10.439Z,0.98
2024-04-18T04:05:37.570Z,0.99
2024-04-18T04:08:06.362Z,1.04
2024-04-18T04:10:39.320Z,1.09
2024-04-18T04:13:06.981Z,1.14
2024-04-18T04:15:43.058Z,1.19
2024-04-18T04:18:10.128Z,1.24
2024-04-18T04:20:43.028Z,1.30
2024-04-18T04:23:10.096Z,1.34
2024-04-18T04:25:55.914Z,1.40
2024-04-18T04:28:22.920Z,1.51
2024-04-18T04:30:50.265Z,1.70
2024-04-18T04:33:17.296Z,2.49
2024-04-18T04:35:44.352Z,4.13
2024-04-18T04:38:11.334Z,5.87
2024-04-18T04:40:38.521Z,7.57
2024-04-18T04:43:05.667Z,9.18
2024-04-18T04:45:32.888Z,10.69
2024-04-18T04:48:07.449Z,12.15
2024-04-18T04:51:02.846Z,13.65
2024-04-18T04:53:32.505Z,14.90
2024-04-18T04:55:59.541Z,15.90
2024-04-18T04:58:26.991Z,16.87
2024-04-18T05:00:55.878Z,17.82
2024-04-18T05:03:38.486Z,18.85
2024-04-18T05:06:24.216Z,18.37
2024-04-18T05:09:10.160Z,16.73
2024-04-18T05:11:37.243Z,15.41
2024-04-18T05:14:25.901Z,14.64
2024-04-18T05:16:53.368Z,14.78
2024-04-18T05:19:21.015Z,16.30
2024-04-18T05:21:48.780Z,17.92
2024-04-18T05:24:34.919Z,19.42
2024-04-18T05:27:01.734Z,19.88
2024-04-18T05:29:46.126Z,20.95
2024-04-18T05:32:12.910Z,22.03
2024-04-18T05:34:59.935Z,22.12
2024-04-18T05:37:26.874Z,22.93
2024-04-18T05:39:54.023Z,23.67
2024-04-18T05:42:20.498Z,23.83
2024-04-18T05:45:08.271Z,24.02
2024-04-18T05:47:54.504Z,24.44
2024-04-18T05:50:20.807Z,24.31
2024-04-18T05:52:48.043Z,23.93
2024-04-18T05:55:20.386Z,23.77
2024-04-18T05:57:46.788Z,23.40
2024-04-18T06:00:32.538Z,24.32
2024-04-18T06:02:59.329Z,24.78
2024-04-18T06:05:26.099Z,24.18
2024-04-18T06:08:11.181Z,23.26
2024-04-18T06:10:38.511Z,22.21
2024-04-18T06:13:20.784Z,21.17
2024-04-18T06:15:49.485Z,19.92
2024-04-18T06:18:16.253Z,19.18
2024-04-18T06:20:45.593Z,18.16
2024-04-18T06:23:12.768Z,17.05
2024-04-18T06:25:39.672Z,16.04
2024-04-18T06:28:07.174Z,15.11
2024-04-18T06:30:33.548Z,14.24
2024-04-18T06:33:00.340Z,13.40
2024-04-18T06:35:26.964Z,12.63
2024-04-18T06:37:53.496Z,12.02
2024-04-18T06:40:24.610Z,11.43
2024-04-18T06:42:51.331Z,10.88
2024-04-18T06:45:19.281Z,10.27
2024-04-18T06:47:45.931Z,9.78
2024-04-18T06:50:12.787Z,9.31
2024-04-18T06:52:39.076Z,8.96
2024-04-18T06:55:05.849Z,8.70
2024-04-18T06:57:41.443Z,8.54
2024-04-18T07:00:11.623Z,8.35
2024-04-18T07:02:38.131Z,8.36
2024-04-18T07:05:36.927Z,8.60
2024-04-18T07:08:21.547Z,8.83
2024-04-18T07:10:46.370Z,8.99
2024-04-18T07:13:28.794Z,9.28
2024-04-18T07:15:55.749Z,9.47
2024-04-18T07:18:41.371Z,9.26
2024-04-18T07:21:08.113Z,9.32
2024-04-18T07:23:37.273Z,10.79
2024-04-18T07:26:04.052Z,12.04
2024-04-18T07:28:30.364Z,12.72
2024-04-18T07:30:56.777Z,13.83
2024-04-18T07:33:23.372Z,14.47
2024-04-18T07:35:57.304Z,14.65
2024-04-18T07:38:25.211Z,15.72
2024-04-18T07:40:51.842Z,16.77
2024-04-18T07:43:18.404Z,17.02
2024-04-18T07:45:45.356Z,16.72
2024-04-18T07:48:12.451Z,16.32
2024-04-18T07:50:38.786Z,15.97
2024-04-18T07:53:10.962Z,15.62
2024-04-18T07:55:37.689Z,15.29
2024-04-18T07:58:02.859Z,14.81
2024-04-18T08:00:31.018Z,14.17
2024-04-18T08:03:00.990Z,13.71
2024-04-18T08:05:31.500Z,13.29
2024-04-18T08:08:01.905Z,12.76
2024-04-18T08:10:36.653Z,12.30
2024-04-18T08:13:15.156Z,11.92
2024-04-18T08:18:14.070Z,10.99
2024-04-18T08:20:40.687Z,10.56
2024-04-18T08:23:07.341Z,10.06
2024-04-18T08:25:33.961Z,9.67
2024-04-18T08:28:00.504Z,9.34
2024-04-18T08:30:28.059Z,9.00
2024-04-18T08:32:54.633Z,8.75
2024-04-18T08:35:20.192Z,8.54
2024-04-18T08:37:46.713Z,8.33
2024-04-18T08:40:13.590Z,8.09
2024-04-18T08:42:40.001Z,7.91
2024-04-18T08:45:09.596Z,7.83
2024-04-18T08:47:37.718Z,7.83
2024-04-18T08:50:06.852Z,7.87
2024-04-18T08:52:37.807Z,7.95
2024-04-18T08:55:05.759Z,8.13
2024-04-18T08:57:35.761Z,8.41
2024-04-18T09:00:05.428Z,9.20
2024-04-18T09:02:32.845Z,10.60
2024-04-18T09:05:00.594Z,11.73
2024-04-18T09:07:27.599Z,12.83
2024-04-18T09:10:02.974Z,13.49
2024-04-18T09:12:29.425Z,13.73
2024-04-18T09:14:56.688Z,13.70
2024-04-18T09:17:23.305Z,13.68
2024-04-18T09:19:52.146Z,13.75
2024-04-18T09:22:19.745Z,13.58
2024-04-18T09:24:46.880Z,13.44
2024-04-18T09:27:14.573Z,13.23
2024-04-18T09:29:40.827Z,13.09
2024-04-18T09:32:09.201Z,12.95
2024-04-18T09:34:38.047Z,12.96
2024-04-18T09:37:07.084Z,13.37
2024-04-18T09:39:38.402Z,13.98
2024-04-18T09:42:14.576Z,14.44
2024-04-18T09:44:45.774Z,15.06
2024-04-18T09:47:14.831Z,15.39
2024-04-18T09:49:42.740Z,15.38
2024-04-18T09:52:13.903Z,15.51
2024-04-18T09:54:41.513Z,16.18
2024-04-18T09:57:08.846Z,16.68
2024-04-18T09:59:35.774Z,17.16
2024-04-18T10:02:04.076Z,17.66
2024-04-18T10:04:32.234Z,18.05
2024-04-18T10:06:59.727Z,17.93
2024-04-18T10:09:28.510Z,17.58
2024-04-18T10:11:55.308Z,17.01
2024-04-18T10:14:23.237Z,16.36
2024-04-18T10:16:50.759Z,15.71
2024-04-18T10:19:22.894Z,14.99
2024-04-18T10:22:10.951Z,14.22
2024-04-18T10:24:43.765Z,13.36
2024-04-18T10:27:15.265Z,12.62
2024-04-18T10:29:43.286Z,11.92
2024-04-18T10:32:11.462Z,11.26
2024-04-18T10:34:42.850Z,10.84
2024-04-18T10:37:10.374Z,10.58
2024-04-18T10:39:39.777Z,10.37
2024-04-18T10:42:10.286Z,10.28
2024-04-18T10:44:37.434Z,10.18
2024-04-18T10:47:04.116Z,9.94
2024-04-18T10:49:30.458Z,9.65
2024-04-18T10:52:04.901Z,9.34
2024-04-18T10:54:31.641Z,9.13
2024-04-18T10:56:58.502Z,8.99
2024-04-18T10:59:24.984Z,8.94
2024-04-18T11:01:51.902Z,9.08
2024-04-18T11:04:18.335Z,9.30
2024-04-18T11:06:43.488Z,9.50
2024-04-18T11:09:10.004Z,9.59
2024-04-18T11:11:39.565Z,9.62
2024-04-18T11:14:08.071Z,9.70
2024-04-18T11:16:35.981Z,9.88
2024-04-18T11:19:02.967Z,10.04
2024-04-18T11:21:31.057Z,10.14
2024-04-18T11:23:59.115Z,10.32
2024-04-18T11:26:27.522Z,10.58
2024-04-18T11:28:57.075Z,10.77
2024-04-18T11:31:23.501Z,10.87
2024-04-18T11:33:50.225Z,10.93
2024-04-18T11:36:17.535Z,11.05
2024-04-18T11:38:43.998Z,11.10
2024-04-18T11:41:10.265Z,11.05
2024-04-18T11:43:36.524Z,10.84
2024-04-18T11:46:02.974Z,10.67
2024-04-18T11:48:29.906Z,10.51
2024-04-18T11:50:56.489Z,10.48
2024-04-18T11:53:23.581Z,10.42
2024-04-18T11:55:51.085Z,10.33
2024-04-18T11:58:27.921Z,10.36
2024-04-18T12:00:54.846Z,10.41
2024-04-18T12:03:37.935Z,10.54
2024-04-18T12:06:26.006Z,10.63
2024-04-18T12:08:55.336Z,10.73
2024-04-18T12:11:29.851Z,10.88
2024-04-18T12:14:12.721Z,11.04
2024-04-18T12:17:06.158Z,11.03
2024-04-18T12:19:42.696Z,10.85
2024-04-18T12:22:30.552Z,10.61
2024-04-18T12:25:12.803Z,10.53
2024-04-18T12:27:40.205Z,10.61
2024-04-18T12:30:30.136Z,10.66
2024-04-18T12:33:16.548Z,10.57
2024-04-18T12:35:43.950Z,10.66
2024-04-18T12:38:10.817Z,10.74
2024-04-18T12:40:43.630Z,10.80
2024-04-18T12:43:10.482Z,10.68
2024-04-18T12:45:55.511Z,10.61
2024-04-18T12:48:46.044Z,10.82
2024-04-18T12:51:13.411Z,10.78
2024-04-18T12:53:43.514Z,10.67
2024-04-18T12:56:11.134Z,10.49
2024-04-18T12:58:40.780Z,10.36
2024-04-18T13:01:08.582Z,10.28
2024-04-18T13:03:38.532Z,10.30
2024-04-18T13:06:26.225Z,10.48
2024-04-18T13:08:53.647Z,10.61
2024-04-18T13:11:39.277Z,10.76
2024-04-18T13:14:06.588Z,10.97
2024-04-18T13:16:34.413Z,11.17
2024-04-18T13:19:10.526Z,11.33
2024-04-18T13:21:37.731Z,11.52
2024-04-18T13:24:04.810Z,11.73
2024-04-18T13:26:50.869Z,11.95
2024-04-18T13:29:18.038Z,12.03
2024-04-18T13:31:44.837Z,12.04
2024-04-18T13:34:21.105Z,12.02
2024-04-18T13:36:48.151Z,11.94
2024-04-18T13:39:15.084Z,11.76
2024-04-18T13:41:44.142Z,11.43
2024-04-18T13:44:17.008Z,11.09
2024-04-18T13:46:44.496Z,10.77
2024-04-18T13:49:11.514Z,10.52
2024-04-18T13:51:54.147Z,10.27
2024-04-18T13:54:36.038Z,10.21
2024-04-18T13:57:23.212Z,10.15
2024-04-18T14:00:12.587Z,10.12
2024-04-18T14:03:08.692Z,10.04
2024-04-18T14:05:55.849Z,9.84
2024-04-18T14:08:36.062Z,9.66
2024-04-18T14:11:21.716Z,9.57
2024-04-18T14:14:04.921Z,9.50
2024-04-18T14:16:49.616Z,9.44
2024-04-18T14:19:30.956Z,9.35
2024-04-18T14:22:04.085Z,9.28
2024-04-18T14:24:31.708Z,9.20
2024-04-18T14:26:58.598Z,9.13
2024-04-18T14:29:28.652Z,9.15
2024-04-18T14:32:01.001Z,9.21
2024-04-18T14:35:08.157Z,9.36
2024-04-18T14:37:35.135Z,9.54
2024-04-18T14:40:03.164Z,9.62
2024-04-18T14:42:30.279Z,9.63
2024-04-18T14:44:57.339Z,9.64
2024-04-18T14:47:24.237Z,9.70
2024-04-18T14:50:01.221Z,9.73
2024-04-18T14:52:33.905Z,9.71
2024-04-18T14:55:00.963Z,9.66
2024-04-18T14:57:34.213Z,9.57
2024-04-18T15:00:19.928Z,9.48
2024-04-18T15:02:47.285Z,9.42
2024-04-18T15:05:33.797Z,9.42
2024-04-18T15:08:01.305Z,9.40
2024-04-18T15:10:46.866Z,9.36
2024-04-18T15:13:13.932Z,9.32
2024-04-18T15:15:44.794Z,9.23
2024-04-18T15:18:13.118Z,9.16
2024-04-18T15:20:40.457Z,9.07
2024-04-18T15:23:10.779Z,9.02
2024-04-18T15:25:38.490Z,8.96
2024-04-18T15:28:06.079Z,8.92
2024-04-18T15:30:34.658Z,8.90
2024-04-18T15:33:21.192Z,8.90
2024-04-18T15:35:48.434Z,8.81
2024-04-18T15:38:15.785Z,8.73
2024-04-18T15:41:01.874Z,8.64
2024-04-18T15:43:36.689Z,8.56
2024-04-18T15:46:06.412Z,8.50
2024-04-18T15:48:34.890Z,8.40
2024-04-18T15:51:02.091Z,8.28
2024-04-18T15:53:29.039Z,8.17
2024-04-18T15:56:08.856Z,8.07
2024-04-18T15:58:54.535Z,7.93
2024-04-18T16:01:21.978Z,7.81
2024-04-18T16:04:07.924Z,7.70
2024-04-18T16:06:54.026Z,7.60
2024-04-18T16:09:39.796Z,7.52
2024-04-18T16:12:22.420Z,7.45
2024-04-18T16:15:01.459Z,7.36
2024-04-18T16:17:28.452Z,7.30
2024-04-18T16:20:12.120Z,7.20
2024-04-18T16:22:39.424Z,7.12
2024-04-18T16:25:25.347Z,7.05
2024-04-18T16:27:52.888Z,6.96
2024-04-18T16:30:20.757Z,6.91
2024-04-18T16:32:49.200Z,6.87
2024-04-18T16:35:16.808Z,6.85
2024-04-18T16:38:06.487Z,6.79
2024-04-18T16:40:50.313Z,6.77
2024-04-18T16:43:29.664Z,6.71
2024-04-18T16:45:59.469Z,6.64
2024-04-18T16:48:27.214Z,6.57
2024-04-18T16:50:54.284Z,6.50
2024-04-18T16:53:22.626Z,6.43
2024-04-18T16:55:49.810Z,6.34
2024-04-18T16:58:17.127Z,6.26
2024-04-18T17:00:56.029Z,6.20
2024-04-18T17:03:23.302Z,6.15
2024-04-18T17:06:03.987Z,6.13
2024-04-18T17:08:31.565Z,6.11
2024-04-18T17:10:58.729Z,6.12
2024-04-18T17:13:44.888Z,6.12
2024-04-18T17:16:11.894Z,6.13
2024-04-18T17:18:46.143Z,6.12
2024-04-18T17:21:13.715Z,6.10
2024-04-18T17:23:40.486Z,6.12
2024-04-18T17:26:07.263Z,6.13
2024-04-18T17:28:34.472Z,6.13
2024-04-18T17:31:01.610Z,6.13
2024-04-18T17:33:28.925Z,6.12
2024-04-18T17:35:59.004Z,6.13
2024-04-18T17:38:45.244Z,6.12
2024-04-18T17:41:29.940Z,6.13
2024-04-18T17:44:15.225Z,6.14
2024-04-18T17:46:54.142Z,6.13
2024-04-18T17:49:21.364Z,6.13
2024-04-18T17:51:48.432Z,6.13
2024-04-18T17:54:17.843Z,6.14
2024-04-18T17:56:45.215Z,6.13
2024-04-18T17:59:14.872Z,6.14
2024-04-18T18:01:42.908Z,6.14
2024-04-18T18:04:10.626Z,6.11
2024-04-18T18:06:38.481Z,6.12
2024-04-18T18:09:06.429Z,6.11
2024-04-18T18:11:34.440Z,6.08
2024-04-18T18:14:03.484Z,6.06
2024-04-18T18:16:49.458Z,6.03
2024-04-18T18:19:16.710Z,6.01
2024-04-18T18:21:56.105Z,5.97
2024-04-18T18:24:23.235Z,5.95
2024-04-18T18:26:50.462Z,5.93
2024-04-18T18:29:18.397Z,5.94
2024-04-18T18:32:04.657Z,5.94
2024-04-18T18:34:33.123Z,5.90
2024-04-18T18:36:59.898Z,5.87
2024-04-18T18:39:30.925Z,5.86
2024-04-18T18:41:58.096Z,5.82
2024-04-18T18:44:35.820Z,5.79
2024-04-18T18:47:03.039Z,5.73
2024-04-18T18:49:48.346Z,5.71
2024-04-18T18:52:15.556Z,5.67
2024-04-18T18:54:42.491Z,5.65
2024-04-18T18:57:09.908Z,5.63
2024-04-18T18:59:36.959Z,5.60
2024-04-18T19:02:04.019Z,5.57
2024-04-18T19:04:50.897Z,5.53
2024-04-18T19:07:18.023Z,5.50
2024-04-18T19:09:46.227Z,5.49
2024-04-18T19:12:13.714Z,5.48
2024-04-18T19:14:40.851Z,5.46
2024-04-18T19:17:08.076Z,5.45
2024-04-18T19:19:35.635Z,5.44
2024-04-18T19:22:04.316Z,5.43
2024-04-18T19:24:31.303Z,5.42
2024-04-18T19:26:58.545Z,5.40
2024-04-18T19:29:35.544Z,5.37
2024-04-18T19:32:08.013Z,5.35
2024-04-18T19:34:35.260Z,5.34
2024-04-18T19:37:04.911Z,5.31
2024-04-18T19:39:32.422Z,5.33
2024-04-18T19:41:59.569Z,5.32
2024-04-18T19:44:26.629Z,5.33
2024-04-18T19:46:53.413Z,5.34
2024-04-18T19:49:20.306Z,5.34
2024-04-18T19:51:56.151Z,5.33
2024-04-18T19:54:22.921Z,5.33
2024-04-18T19:56:49.653Z,5.31
2024-04-18T19:59:16.431Z,5.31
2024-04-18T20:01:43.210Z,5.30
2024-04-18T20:04:10.194Z,5.28
2024-04-18T20:06:37.149Z,5.27
2024-04-18T20:09:04.083Z,5.25
2024-04-18T20:11:31.320Z,5.22
2024-04-18T20:13:58.335Z,5.21
2024-04-18T20:16:25.586Z,5.19
2024-04-18T20:19:11.266Z,5.18
2024-04-18T20:21:38.233Z,5.15
2024-04-18T20:24:05.481Z,5.13
2024-04-18T20:26:34.222Z,5.12
2024-04-18T20:29:11.531Z,5.12
2024-04-18T20:31:38.481Z,5.10
2024-04-18T20:34:05.266Z,5.10
2024-04-18T20:36:33.011Z,5.08
2024-04-18T20:38:59.976Z,5.05
2024-04-18T20:41:26.714Z,5.01
2024-04-18T20:43:53.009Z,4.98
2024-04-18T20:46:23.045Z,4.93
2024-04-18T20:48:49.471Z,4.86
2024-04-18T20:51:19.560Z,4.79
2024-04-18T20:53:45.911Z,4.76
2024-04-18T20:56:10.949Z,4.70
2024-04-18T20:58:37.279Z,4.62
2024-04-18T21:01:02.278Z,4.54
2024-04-18T21:03:28.869Z,4.47
2024-04-18T21:05:55.280Z,4.41
2024-04-18T21:08:20.155Z,4.36
2024-04-18T21:10:46.563Z,4.27
2024-04-18T21:13:13.983Z,4.20
2024-04-18T21:15:40.434Z,4.16
2024-04-18T21:18:07.159Z,4.11
2024-04-18T21:20:33.760Z,4.07
2024-04-18T21:23:00.393Z,4.03
2024-04-18T21:25:26.947Z,3.99
2024-04-18T21:27:53.348Z,3.95
2024-04-18T21:30:18.463Z,3.91
2024-04-18T21:32:45.080Z,3.84
2024-04-18T21:35:11.527Z,3.78
2024-04-18T21:37:37.886Z,3.75
2024-04-18T21:40:03.089Z,3.72
2024-04-18T21:42:29.843Z,3.66
2024-04-18T21:44:56.270Z,3.61
2024-04-18T21:47:22.635Z,3.57
2024-04-18T21:49:49.513Z,3.52
2024-04-18T21:52:15.883Z,3.48
2024-04-18T21:54:42.294Z,3.43
2024-04-18T21:57:09.290Z,3.38
2024-04-18T21:59:36.865Z,3.35
2024-04-18T22:02:03.455Z,3.30
2024-04-18T22:04:30.157Z,3.28
2024-04-18T22:06:57.139Z,3.23
2024-04-18T22:09:23.615Z,3.18
2024-04-18T22:11:50.707Z,3.12
2024-04-18T22:14:17.043Z,3.08
2024-04-18T22:16:44.981Z,3.02
2024-04-18T22:19:12.110Z,2.97
2024-04-18T22:21:38.885Z,2.92
2024-04-18T22:24:06.158Z,2.87
2024-04-18T22:26:32.759Z,2.83
2024-04-18T22:28:59.300Z,2.78
2024-04-18T22:31:25.838Z,2.74
2024-04-18T22:33:52.523Z,2.70
2024-04-18T22:36:19.391Z,2.67
2024-04-18T22:38:45.795Z,2.64
2024-04-18T22:41:12.133Z,2.62
2024-04-18T22:43:38.520Z,2.56
2024-04-18T22:46:05.047Z,2.56
2024-04-18T22:48:32.152Z,2.53
2024-04-18T22:51:04.357Z,2.50
2024-04-18T22:53:30.742Z,2.46
2024-04-18T22:56:00.501Z,2.44
2024-04-18T22:58:28.111Z,2.42
2024-04-18T23:01:04.347Z,2.36
2024-04-18T23:03:30.896Z,2.32
2024-04-18T23:06:11.265Z,2.28
2024-04-18T23:08:40.744Z,2.24
2024-04-18T23:11:07.161Z,2.21
2024-04-18T23:13:34.335Z,2.19
2024-04-18T23:16:00.724Z,2.17
2024-04-18T23:18:28.199Z,2.13
2024-04-18T23:20:55.710Z,2.09
2024-04-18T23:23:32.409Z,2.05
2024-04-18T23:25:58.794Z,2.01
2024-04-18T23:28:25.220Z,1.97
2024-04-18T23:30:51.798Z,1.95
2024-04-18T23:33:18.193Z,1.92
2024-04-18T23:35:45.463Z,1.88
2024-04-18T23:38:11.973Z,1.86
2024-04-18T23:40:39.316Z,1.84
2024-04-18T23:43:06.269Z,1.80
2024-04-18T23:45:32.681Z,1.78
2024-04-18T23:47:59.245Z,1.75
2024-04-18T23:50:25.710Z,1.70
2024-04-18T23:52:52.418Z,1.72
2024-04-18T23:55:19.055Z,1.70
2024-04-18T23:57:45.498Z,1.68
